Time;durP1;ratioP1;P1;durP2;ratioP2;P2;SDS_P1;SDS_P2;PMS_P1;PMS_P2;Temp;Humidity;BMP_temperature;BMP_pressure;BME280_temperature;BME280_humidity;BME280_pressure;Samples;Min_cycle;Max_cycle;Signal;HPM_P1;HPM_P2
2022/05/14 00:01:09;;;;;;;17.48;4.72;;;12.90;99.90;;;;;;5049968;28;20045;-75
2022/05/14 00:03:38;;;;;;;21.02;5.18;;;12.90;99.90;;;;;;5033445;28;20048;-76
2022/05/14 00:06:06;;;;;;;11.95;4.05;;;12.90;99.90;;;;;;5049981;28;20440;-75
2022/05/14 00:08:32;;;;;;;18.17;5.00;;;12.90;99.90;;;;;;5050455;28;20552;-74
2022/05/14 00:13:44;;;;;;;17.88;5.30;;;12.90;99.90;;;;;;5047998;28;20177;-74
2022/05/14 00:16:11;;;;;;;17.63;4.82;;;12.90;99.90;;;;;;5048904;28;20056;-74
2022/05/14 00:18:37;;;;;;;16.98;4.38;;;12.90;99.90;;;;;;5049721;28;20053;-75
2022/05/14 00:21:04;;;;;;;;;;;12.90;99.90;;;;;;5049943;28;20230;-75
2022/05/14 00:23:30;;;;;;;16.67;4.65;;;12.90;99.90;;;;;;5049089;28;20005;-75
2022/05/14 00:25:56;;;;;;;16.42;4.72;;;12.90;99.90;;;;;;5032918;28;20517;-75
2022/05/14 00:28:21;;;;;;;19.05;5.13;;;12.80;99.90;;;;;;5049705;28;20067;-75
2022/05/14 00:30:48;;;;;;;17.15;4.95;;;12.80;99.90;;;;;;5033282;28;20409;-75
2022/05/14 00:33:14;;;;;;;18.92;5.53;;;12.70;99.90;;;;;;5049206;28;20045;-75
2022/05/14 00:35:40;;;;;;;13.45;5.85;;;12.70;99.90;;;;;;5050686;28;20059;-75
2022/05/14 00:38:08;;;;;;;19.95;5.00;;;12.60;99.90;;;;;;5048835;28;20044;-74
2022/05/14 00:40:55;;;;;;;13.80;4.90;;;12.60;99.90;;;;;;5032928;28;20067;-75
2022/05/14 00:43:21;;;;;;;;;;;12.60;99.90;;;;;;5049074;28;20041;-75
2022/05/14 00:45:56;;;;;;;20.63;5.25;;;12.60;99.90;;;;;;5032029;28;19999;-75
2022/05/14 00:48:25;;;;;;;16.98;5.18;;;12.60;99.90;;;;;;5049350;28;20543;-75
2022/05/14 00:50:57;;;;;;;21.23;5.65;;;12.50;99.90;;;;;;5032644;28;20052;-75
2022/05/14 00:53:34;;;;;;;20.05;5.50;;;12.50;99.90;;;;;;5032718;28;20059;-74
2022/05/14 00:56:05;;;;;;;18.02;5.50;;;12.50;99.90;;;;;;5048702;28;20072;-75
2022/05/14 00:59:06;;;;;;;15.43;5.00;;;12.40;99.90;;;;;;5049387;28;20354;-76
2022/05/14 01:01:33;;;;;;;21.02;5.20;;;12.40;99.90;;;;;;5049275;28;20049;-75
2022/05/14 01:03:58;;;;;;;21.25;5.47;;;12.40;99.90;;;;;;5048578;28;20123;-75
2022/05/14 01:06:26;;;;;;;19.35;5.75;;;12.50;99.90;;;;;;5048957;28;20610;-73
2022/05/14 01:08:52;;;;;;;24.70;6.10;;;12.50;99.90;;;;;;5049068;28;20041;-75
2022/05/14 01:11:19;;;;;;;19.13;5.83;;;12.50;99.90;;;;;;5048417;28;20033;-75
2022/05/14 01:13:44;;;;;;;21.38;5.80;;;12.50;99.90;;;;;;5032349;28;20301;-75
2022/05/14 01:16:11;;;;;;;25.65;5.97;;;12.50;99.90;;;;;;5031690;28;20428;-76
2022/05/14 01:18:38;;;;;;;22.63;6.35;;;12.60;99.90;;;;;;5032069;28;20041;-75
2022/05/14 01:21:21;;;;;;;22.13;6.30;;;12.50;99.90;;;;;;5048709;28;20058;-74
2022/05/14 01:26:43;;;;;;;22.23;6.75;;;12.50;99.90;;;;;;5048712;28;20052;-74
2022/05/14 01:29:15;;;;;;;18.40;5.95;;;12.60;99.90;;;;;;5048404;28;20076;-75
2022/05/14 01:31:42;;;;;;;20.88;6.22;;;12.50;99.90;;;;;;5048794;28;20044;-75
2022/05/14 01:34:11;;;;;;;23.20;6.18;;;12.50;99.90;;;;;;5048322;28;20171;-73
2022/05/14 01:36:39;;;;;;;20.67;6.47;;;12.50;99.90;;;;;;5051725;28;20068;-74
2022/05/14 01:39:06;;;;;;;28.17;7.03;;;12.50;99.90;;;;;;5052556;28;20076;-74
2022/05/14 01:41:31;;;;;;;23.80;6.80;;;12.50;99.90;;;;;;5052966;28;20489;-74
2022/05/14 01:43:57;;;;;;;27.15;7.50;;;12.40;99.90;;;;;;5052590;28;20037;-75
2022/05/14 01:46:23;;;;;;;25.70;7.68;;;12.50;99.90;;;;;;5052217;28;20047;-75
2022/05/14 01:48:49;;;;;;;23.98;7.40;;;12.40;99.90;;;;;;5036171;28;20477;-75
2022/05/14 01:51:16;;;;;;;25.73;6.80;;;12.40;99.90;;;;;;5051996;28;20055;-74
2022/05/14 01:53:42;;;;;;;26.48;6.75;;;12.40;99.90;;;;;;5052851;28;20485;-74
2022/05/14 01:56:08;;;;;;;23.80;6.97;;;12.40;99.90;;;;;;5035291;28;20052;-75
2022/05/14 01:58:37;;;;;;;22.45;7.60;;;12.40;99.90;;;;;;5052532;28;20041;-75
2022/05/14 02:01:19;;;;;;;25.40;6.80;;;12.30;99.90;;;;;;5051754;28;20072;-74
2022/05/14 02:03:49;;;;;;;22.60;6.70;;;12.30;99.90;;;;;;5052477;28;20557;-75
2022/05/14 02:06:15;;;;;;;23.30;7.45;;;12.30;99.90;;;;;;5051955;28;20063;-76
2022/05/14 02:08:41;;;;;;;;;;;12.20;99.90;;;;;;5052856;28;20408;-75
2022/05/14 02:11:08;;;;;;;27.17;6.90;;;12.20;99.90;;;;;;5051536;28;19916;-75
2022/05/14 02:13:35;;;;;;;25.83;7.05;;;12.20;99.90;;;;;;5052203;28;20041;-75
2022/05/14 02:16:01;;;;;;;21.55;6.95;;;12.20;99.90;;;;;;5062693;28;20067;-75
2022/05/14 02:18:27;;;;;;;24.98;7.40;;;12.10;99.90;;;;;;5054717;28;20075;-74
2022/05/14 02:20:53;;;;;;;29.73;8.27;;;12.10;99.90;;;;;;5055155;28;20044;-75
2022/05/14 02:23:19;;;;;;;30.38;8.32;;;12.00;99.90;;;;;;5052281;28;20940;-75
2022/05/14 02:25:45;;;;;;;37.25;8.27;;;12.00;99.90;;;;;;5055402;28;20037;-75
2022/05/14 02:28:12;;;;;;;25.85;7.72;;;11.90;99.90;;;;;;5054766;28;20322;-75
2022/05/14 02:30:38;;;;;;;22.92;7.97;;;11.90;99.90;;;;;;5055028;28;20116;-75
2022/05/14 02:33:03;;;;;;;32.53;8.38;;;11.90;99.90;;;;;;5038243;28;20431;-74
2022/05/14 02:35:29;;;;;;;26.77;8.13;;;11.80;99.90;;;;;;5055652;28;20046;-74
2022/05/14 02:37:55;;;;;;;33.58;8.63;;;11.80;99.90;;;;;;5038175;28;20292;-75
2022/05/14 02:40:21;;;;;;;34.40;9.27;;;11.70;99.90;;;;;;5072395;28;20549;-75
2022/05/14 02:42:47;;;;;;;30.88;8.02;;;11.70;99.90;;;;;;5054861;28;20279;-74
2022/05/14 02:45:13;;;;;;;32.60;8.65;;;11.70;99.90;;;;;;5037792;28;20071;-75
2022/05/14 02:47:39;;;;;;;27.38;6.97;;;11.70;99.90;;;;;;5054480;28;20068;-74
2022/05/14 02:50:07;;;;;;;31.95;8.05;;;11.60;99.90;;;;;;5037681;28;20068;-75
2022/05/14 02:52:33;;;;;;;29.73;8.30;;;11.60;99.90;;;;;;5085712;28;20059;-75
2022/05/14 02:54:59;;;;;;;29.08;7.95;;;11.60;99.90;;;;;;5055039;28;20065;-75
2022/05/14 02:57:24;;;;;;;28.05;7.85;;;11.60;99.90;;;;;;5037783;28;20112;-74
2022/05/14 02:59:50;;;;;;;25.83;7.70;;;11.50;99.90;;;;;;5054479;28;20451;-75
2022/05/14 03:02:17;;;;;;;28.93;7.63;;;11.40;99.90;;;;;;5054311;28;20287;-74
2022/05/14 03:04:43;;;;;;;31.45;8.52;;;11.40;99.90;;;;;;5037606;28;20314;-74
2022/05/14 03:07:11;;;;;;;30.33;8.18;;;11.40;99.90;;;;;;5054311;28;20542;-75
2022/05/14 03:09:38;;;;;;;27.75;8.57;;;11.30;99.90;;;;;;5037688;28;20377;-75
2022/05/14 03:12:05;;;;;;;26.50;8.73;;;11.30;99.90;;;;;;5037847;28;20464;-74
2022/05/14 03:14:31;;;;;;;36.15;8.23;;;11.30;99.90;;;;;;5053699;28;20040;-74
2022/05/14 03:16:57;;;;;;;30.50;8.18;;;11.20;99.90;;;;;;5036707;28;20071;-76
2022/05/14 03:19:23;;;;;;;28.45;8.30;;;11.10;99.90;;;;;;5036324;28;20412;-76
2022/05/14 03:21:49;;;;;;;30.75;9.00;;;11.10;99.90;;;;;;5053309;28;20090;-74
2022/05/14 03:24:17;;;;;;;26.03;9.00;;;11.10;99.90;;;;;;5052992;28;20443;-74
2022/05/14 03:26:43;;;;;;;31.65;9.75;;;11.10;99.90;;;;;;5036913;28;20608;-75
2022/05/14 03:29:10;;;;;;;34.38;9.45;;;11.00;99.90;;;;;;5071022;28;20033;-74
2022/05/14 03:31:36;;;;;;;;;;;11.00;99.90;;;;;;5054307;28;20062;-75
2022/05/14 03:34:03;;;;;;;34.28;9.88;;;11.00;99.90;;;;;;5037369;28;19922;-75
2022/05/14 03:36:29;;;;;;;30.88;9.40;;;11.00;99.90;;;;;;5053606;28;20048;-75
2022/05/14 03:38:55;;;;;;;30.45;9.13;;;11.00;99.90;;;;;;5037387;28;20040;-75
2022/05/14 03:41:22;;;;;;;33.38;9.40;;;11.00;99.90;;;;;;5053350;28;20127;-75
2022/05/14 03:43:48;;;;;;;31.88;9.23;;;11.00;99.90;;;;;;5053693;28;20037;-74
2022/05/14 03:46:14;;;;;;;34.65;9.88;;;11.00;99.90;;;;;;5020364;28;20045;-74
2022/05/14 03:48:40;;;;;;;34.22;10.50;;;11.00;99.90;;;;;;5053718;28;20044;-75
2022/05/14 03:51:07;;;;;;;39.50;9.90;;;11.00;99.90;;;;;;5036820;28;20090;-74
2022/05/14 03:53:33;;;;;;;28.83;9.73;;;11.10;99.90;;;;;;5053610;28;20468;-74
2022/05/14 03:55:59;;;;;;;41.15;10.75;;;11.10;99.90;;;;;;5053446;28;20061;-74
2022/05/14 03:58:27;;;;;;;39.70;10.43;;;11.10;99.90;;;;;;5052392;28;20063;-75
2022/05/14 04:00:53;;;;;;;40.90;10.75;;;11.10;99.90;;;;;;5053369;28;20044;-75
2022/05/14 04:03:19;;;;;;;40.42;10.48;;;11.10;99.90;;;;;;5052694;28;20048;-75
2022/05/14 04:05:45;;;;;;;43.50;10.70;;;11.20;99.90;;;;;;5053345;28;20496;-74
2022/05/14 04:08:11;;;;;;;32.80;10.32;;;11.20;99.90;;;;;;5053136;28;20062;-75
2022/05/14 04:10:36;;;;;;;48.17;11.20;;;11.10;99.90;;;;;;5053037;28;20420;-76
2022/05/14 04:13:02;;;;;;;35.88;10.10;;;11.20;99.90;;;;;;5053249;28;20036;-74
2022/05/14 04:15:28;;;;;;;38.92;10.35;;;11.10;99.90;;;;;;5035969;28;20485;-74
2022/05/14 04:17:55;;;;;;;32.88;10.02;;;11.10;99.90;;;;;;5036762;28;20459;-75
2022/05/14 04:20:21;;;;;;;33.40;9.57;;;11.10;99.90;;;;;;5052615;28;20131;-75
2022/05/14 04:22:48;;;;;;;37.80;10.85;;;11.10;99.90;;;;;;5052781;28;20036;-75
2022/05/14 04:25:14;;;;;;;;;;;11.20;99.90;;;;;;5036351;28;20076;-74
2022/05/14 04:27:41;;;;;;;31.50;10.15;;;11.10;99.90;;;;;;5052771;28;19920;-75
2022/05/14 04:30:08;;;;;;;37.88;9.60;;;11.10;99.90;;;;;;5052882;28;20039;-75
2022/05/14 04:32:34;;;;;;;36.70;9.60;;;11.20;99.90;;;;;;5052438;28;20032;-75
2022/05/14 04:35:00;;;;;;;37.22;9.70;;;11.20;99.90;;;;;;5036020;28;20068;-76
2022/05/14 04:37:26;;;;;;;37.67;9.93;;;11.20;99.90;;;;;;5052674;28;20083;-75
2022/05/14 04:39:51;;;;;;;29.03;10.07;;;11.30;99.90;;;;;;5036169;28;20040;-75
2022/05/14 04:42:17;;;;;;;32.50;9.07;;;11.30;99.90;;;;;;5051833;28;20315;-75
2022/05/14 04:44:43;;;;;;;38.67;9.57;;;11.30;99.90;;;;;;5051827;28;20498;-75
2022/05/14 04:47:09;;;;;;;40.83;10.18;;;11.30;99.90;;;;;;5051601;28;20071;-75
2022/05/14 04:49:39;;;;;;;;;;;11.50;99.90;;;;;;5051833;28;20044;-75
2022/05/14 04:52:05;;;;;;;32.83;8.77;;;11.50;99.90;;;;;;5051926;28;19916;-74
2022/05/14 04:54:30;;;;;;;46.33;9.52;;;11.50;99.90;;;;;;5051711;28;20365;-74
2022/05/14 04:56:56;;;;;;;33.47;9.10;;;11.60;99.90;;;;;;5052688;28;20044;-75
2022/05/14 04:59:22;;;;;;;35.83;8.93;;;11.70;99.90;;;;;;5035684;28;20362;-75
2022/05/14 05:04:32;;;;;;;28.27;8.00;;;11.80;99.90;;;;;;5069609;28;20052;-75
2022/05/14 05:06:58;;;;;;;30.52;9.18;;;11.90;99.90;;;;;;5052249;28;20036;-75
2022/05/14 05:09:24;;;;;;;31.13;9.23;;;11.90;99.90;;;;;;5051802;28;20051;-75
2022/05/14 05:11:50;;;;;;;29.75;9.18;;;12.00;99.90;;;;;;5052226;28;20358;-75
2022/05/14 05:14:16;;;;;;;38.47;9.40;;;12.10;99.90;;;;;;5052503;28;20048;-75
2022/05/14 05:16:42;;;;;;;;;;;12.20;99.90;;;;;;5052486;28;20053;-74
2022/05/14 05:19:08;;;;;;;28.92;8.18;;;12.20;99.90;;;;;;5052122;28;20310;-75
2022/05/14 05:21:34;;;;;;;35.63;8.85;;;12.30;99.90;;;;;;5051623;28;20048;-75
2022/05/14 05:24:01;;;;;;;31.90;7.90;;;12.30;99.90;;;;;;5035549;28;20052;-75
2022/05/14 05:26:27;;;;;;;30.48;7.72;;;12.40;99.90;;;;;;5051637;28;20048;-73
2022/05/14 05:28:53;;;;;;;32.10;7.57;;;12.40;99.90;;;;;;5035594;28;20385;-74
2022/05/14 05:31:19;;;;;;;30.00;7.68;;;12.40;99.90;;;;;;5035364;28;20342;-75
2022/05/14 05:33:44;;;;;;;32.22;8.30;;;12.40;99.90;;;;;;5052179;28;20040;-75
2022/05/14 05:36:10;;;;;;;25.65;7.15;;;12.40;99.90;;;;;;5052288;28;20044;-75
2022/05/14 05:38:37;;;;;;;33.10;7.65;;;12.60;99.90;;;;;;5035299;28;20098;-75
2022/05/14 05:41:03;;;;;;;29.38;7.68;;;12.70;99.90;;;;;;5052229;28;20048;-75
2022/05/14 05:43:29;;;;;;;26.27;7.38;;;12.80;99.90;;;;;;5035170;28;20460;-75
2022/05/14 05:45:56;;;;;;;30.20;7.75;;;13.10;99.90;;;;;;5051850;28;20025;-75
2022/05/14 05:48:22;;;;;;;23.70;7.28;;;13.30;99.90;;;;;;5051779;28;20106;-74
2022/05/14 05:50:48;;;;;;;21.58;7.03;;;13.60;99.90;;;;;;5052250;28;20425;-75
2022/05/14 05:53:14;;;;;;;23.95;6.28;;;13.70;99.90;;;;;;5051820;28;20044;-74
2022/05/14 05:58:24;;;;;;;27.80;6.47;;;13.80;99.90;;;;;;5051690;28;20272;-75
2022/05/14 06:00:50;;;;;;;21.27;6.22;;;14.10;99.90;;;;;;5052072;28;20041;-75
2022/05/14 06:03:16;;;;;;;31.13;6.38;;;14.60;99.90;;;;;;5051863;28;20072;-75
2022/05/14 06:05:42;;;;;;;22.52;6.40;;;14.80;99.90;;;;;;5051833;28;20041;-74
2022/05/14 06:08:10;;;;;;;20.73;6.43;;;15.10;99.90;;;;;;5051739;28;20055;-75
2022/05/14 06:10:36;;;;;;;22.48;6.00;;;15.60;99.90;;;;;;5051270;28;20123;-76
2022/05/14 06:13:01;;;;;;;23.60;5.22;;;15.60;99.90;;;;;;5051955;28;20166;-75
2022/05/14 06:15:27;;;;;;;18.05;5.05;;;15.70;99.90;;;;;;5051165;28;20064;-74
2022/05/14 06:17:53;;;;;;;23.80;6.75;;;15.30;99.90;;;;;;5035140;28;20052;-77
2022/05/14 06:20:19;;;;;;;27.90;5.90;;;15.20;99.90;;;;;;5035126;28;20182;-73
2022/05/14 06:22:45;;;;;;;17.92;5.13;;;15.20;99.90;;;;;;5054474;28;20142;-75
2022/05/14 06:25:12;;;;;;;18.58;4.85;;;15.60;99.90;;;;;;5055262;28;20051;-75
2022/05/14 06:27:38;;;;;;;17.70;4.40;;;16.00;99.90;;;;;;5054904;28;20035;-74
2022/05/14 06:30:04;;;;;;;22.42;4.60;;;16.30;99.90;;;;;;5055059;28;20485;-74
2022/05/14 06:32:30;;;;;;;24.70;4.93;;;16.40;99.90;;;;;;5054666;28;20036;-75
2022/05/14 06:34:55;;;;;;;17.30;4.30;;;16.60;99.90;;;;;;5054912;28;20124;-76
2022/05/14 06:37:21;;;;;;;23.33;4.13;;;16.80;99.90;;;;;;5055340;28;20040;-76
2022/05/14 06:39:47;;;;;;;19.08;4.22;;;17.00;99.90;;;;;;5054789;28;20040;-76
2022/05/14 06:42:13;;;;;;;10.90;3.40;;;17.20;99.90;;;;;;5055118;28;20037;-76
2022/05/14 06:44:39;;;;;;;17.50;3.97;;;17.40;99.90;;;;;;5054437;28;20039;-77
2022/05/14 06:47:06;;;;;;;15.98;3.83;;;17.40;99.90;;;;;;5054983;28;20044;-76
2022/05/14 06:49:31;;;;;;;16.55;3.60;;;17.50;99.90;;;;;;5038012;28;20043;-75
2022/05/14 06:51:59;;;;;;;17.63;3.75;;;17.40;99.90;;;;;;5038256;28;20024;-76
2022/05/14 06:54:25;;;;;;;13.52;4.00;;;17.40;99.90;;;;;;5072486;28;20139;-75
2022/05/14 06:56:51;;;;;;;16.58;3.55;;;17.60;99.90;;;;;;5054833;28;20048;-76
2022/05/14 06:59:17;;;;;;;12.63;3.55;;;17.70;99.90;;;;;;5054680;28;20484;-75
2022/05/14 07:01:46;;;;;;;13.60;3.63;;;17.80;99.90;;;;;;5054356;28;20047;-75
2022/05/14 07:07:00;;;;;;;19.08;4.15;;;18.30;99.90;;;;;;5054415;28;20048;-76
2022/05/14 07:09:28;;;;;;;13.68;3.55;;;18.20;99.90;;;;;;5054348;28;20128;-75
2022/05/14 07:12:00;;;;;;;16.42;4.10;;;18.10;99.90;;;;;;5054162;28;20045;-75
2022/05/14 07:14:27;;;;;;;17.58;3.65;;;18.30;99.90;;;;;;5054631;28;20607;-76
2022/05/14 07:16:54;;;;;;;14.82;3.70;;;18.60;99.90;;;;;;5054055;28;20492;-76
2022/05/14 07:19:21;;;;;;;18.60;4.03;;;18.50;99.90;;;;;;5072190;28;20037;-75
2022/05/14 07:21:48;;;;;;;15.85;4.18;;;18.60;99.90;;;;;;5054282;28;20039;-78
2022/05/14 07:24:17;;;;;;;14.57;3.30;;;18.60;99.90;;;;;;5038101;28;20040;-75
2022/05/14 07:26:45;;;;;;;16.05;3.65;;;18.80;99.90;;;;;;5053716;28;20077;-76
2022/05/14 07:29:14;;;;;;;15.65;3.40;;;19.10;99.90;;;;;;5053635;28;20115;-80
2022/05/14 07:31:39;;;;;;;15.45;3.85;;;19.30;99.90;;;;;;5052902;28;20043;-80
2022/05/14 07:34:06;;;;;;;16.00;4.00;;;19.40;99.90;;;;;;5035647;28;20041;-79
2022/05/14 07:36:39;;;;;;;13.02;3.63;;;19.50;99.90;;;;;;5052848;28;20033;-78
2022/05/14 07:39:05;;;;;;;16.23;3.20;;;19.50;99.90;;;;;;5053288;28;20048;-76
2022/05/14 07:41:34;;;;;;;10.77;2.95;;;19.80;99.90;;;;;;5052660;28;20036;-78
2022/05/14 07:44:01;;;;;;;14.95;3.30;;;20.20;99.90;;;;;;5052865;28;20033;-78
2022/05/14 07:46:32;;;;;;;13.05;3.50;;;20.40;99.90;;;;;;5053060;28;20098;-77
2022/05/14 07:48:59;;;;;;;14.77;4.07;;;20.20;99.90;;;;;;5053678;28;20036;-77
2022/05/14 07:51:25;;;;;;;13.65;2.90;;;20.20;99.90;;;;;;5053541;28;20064;-78
2022/05/14 07:53:52;;;;;;;14.57;3.42;;;20.50;99.90;;;;;;5053512;28;20544;-78
2022/05/14 07:56:18;;;;;;;13.18;3.38;;;20.70;99.90;;;;;;5035356;28;20481;-77
2022/05/14 07:58:44;;;;;;;;;;;20.80;99.90;;;;;;5054144;28;20094;-79
2022/05/14 08:01:10;;;;;;;13.88;3.17;;;20.80;99.90;;;;;;5053441;28;19924;-78
2022/05/14 08:03:36;;;;;;;14.90;3.25;;;20.90;99.90;;;;;;5035560;28;20032;-80
2022/05/14 08:06:02;;;;;;;;;;;21.00;99.90;;;;;;5037537;28;20453;-79
2022/05/14 08:08:28;;;;;;;10.80;3.10;;;21.20;99.90;;;;;;5036985;28;20391;-79
2022/05/14 08:10:54;;;;;;;;;;;21.20;99.90;;;;;;5036745;28;20044;-78
2022/05/14 08:13:20;;;;;;;15.02;3.83;;;21.10;99.90;;;;;;5037553;28;19967;-83
2022/05/14 08:15:48;;;;;;;18.02;3.60;;;21.10;99.90;;;;;;5048258;28;20080;-85
2022/05/14 08:18:15;;;;;;;12.45;3.50;;;21.40;99.90;;;;;;5050344;28;20107;-86
2022/05/14 08:20:41;;;;;;;14.50;3.45;;;21.30;99.90;;;;;;5049908;28;20047;-86
2022/05/14 08:25:55;;;;;;;14.18;3.40;;;21.50;99.90;;;;;;5050067;28;20063;-86
2022/05/14 08:28:20;;;;;;;12.73;3.22;;;21.80;99.90;;;;;;5034151;28;20069;-86
2022/05/14 08:30:46;;;;;;;;;;;22.20;99.90;;;;;;5033840;28;20067;-86
2022/05/14 08:33:12;;;;;;;13.15;3.42;;;22.40;99.90;;;;;;5050093;28;20398;-86
2022/05/14 08:35:38;;;;;;;10.38;2.80;;;22.50;99.90;;;;;;5033305;28;20557;-86
2022/05/14 08:38:05;;;;;;;13.27;3.55;;;22.50;99.90;;;;;;5050020;28;20079;-86
2022/05/14 08:40:44;;;;;;;12.45;3.20;;;22.80;99.90;;;;;;5050549;28;20396;-86
2022/05/14 08:43:19;;;;;;;11.15;3.42;;;22.90;99.90;;;;;;5048742;28;20045;-85
2022/05/14 08:45:45;;;;;;;11.02;3.03;;;23.10;99.90;;;;;;5032599;28;20037;-84
2022/05/14 08:48:16;;;;;;;12.40;2.92;;;23.20;99.90;;;;;;5049921;28;20041;-85
2022/05/14 08:50:44;;;;;;;11.38;3.55;;;23.30;99.90;;;;;;5049536;28;20044;-86
2022/05/14 08:53:13;;;;;;;12.07;3.40;;;23.50;99.90;;;;;;5017316;28;20437;-85
2022/05/14 08:56:11;;;;;;;10.85;2.97;;;23.30;99.90;;;;;;5032795;28;20052;-85
2022/05/14 08:58:42;;;;;;;;;;;23.10;99.80;;;;;;5050415;28;20025;-86
2022/05/14 09:01:11;;;;;;;12.52;2.90;;;22.80;99.90;;;;;;5031452;28;19917;-85
2022/05/14 09:03:41;;;;;;;13.02;2.72;;;23.00;99.60;;;;;;5049658;28;20091;-87
2022/05/14 09:06:07;;;;;;;11.25;2.78;;;23.20;99.90;;;;;;5049566;28;20051;-86
2022/05/14 09:08:33;;;;;;;12.07;3.20;;;23.30;99.20;;;;;;5033398;28;20029;-86
2022/05/14 09:11:06;;;;;;;11.02;3.22;;;23.70;98.90;;;;;;5032551;28;20120;-85
2022/05/14 09:13:43;;;;;;;12.70;3.30;;;24.00;99.10;;;;;;5033295;28;20117;-84
2022/05/14 09:16:28;;;;;;;12.05;3.45;;;24.00;98.70;;;;;;5049284;28;20571;-85
2022/05/14 09:18:54;;;;;;;11.82;3.17;;;24.10;98.20;;;;;;5032797;28;20103;-86
2022/05/14 09:21:32;;;;;;;13.00;3.13;;;23.90;98.60;;;;;;5047254;28;20045;-86
2022/05/14 09:24:16;;;;;;;12.88;3.40;;;23.90;98.60;;;;;;5032382;28;20065;-85
2022/05/14 09:26:42;;;;;;;12.00;3.28;;;23.80;98.10;;;;;;5030723;28;20456;-85
2022/05/14 09:29:36;;;;;;;11.90;3.30;;;23.50;98.20;;;;;;5049772;28;20050;-85
2022/05/14 09:32:05;;;;;;;11.13;2.90;;;23.70;98.60;;;;;;5030455;28;20488;-85
2022/05/14 09:34:33;;;;;;;14.57;2.92;;;23.30;98.40;;;;;;5049530;28;20033;-85
2022/05/14 09:37:20;;;;;;;13.02;2.63;;;23.80;97.90;;;;;;5049020;28;20124;-86
2022/05/14 09:40:00;;;;;;;14.23;3.20;;;24.20;98.10;;;;;;5047569;28;20431;-84
2022/05/14 09:42:46;;;;;;;17.50;3.83;;;24.00;97.50;;;;;;5049641;28;20128;-85
2022/05/14 09:45:22;;;;;;;11.88;3.58;;;24.20;97.50;;;;;;5048157;28;20041;-85
2022/05/14 09:47:48;;;;;;;13.32;3.65;;;24.10;97.00;;;;;;5047536;28;20112;-86
2022/05/14 09:50:23;;;;;;;10.60;3.05;;;23.70;97.10;;;;;;5033070;28;20048;-86
2022/05/14 09:53:01;;;;;;;12.55;2.65;;;23.50;97.60;;;;;;5032644;28;20366;-85
2022/05/14 09:55:43;;;;;;;14.18;3.42;;;24.00;97.30;;;;;;5049193;28;20516;-85
2022/05/14 09:58:31;;;;;;;12.07;3.60;;;24.70;97.00;;;;;;5034664;28;20076;-85
2022/05/14 10:01:05;;;;;;;11.73;3.22;;;24.70;96.80;;;;;;5035293;28;20037;-86
2022/05/14 10:03:41;;;;;;;9.93;3.10;;;24.50;96.60;;;;;;5053199;28;20493;-84
2022/05/14 10:06:19;;;;;;;16.02;3.50;;;24.30;97.10;;;;;;5052531;28;20378;-86
2022/05/14 10:08:56;;;;;;;14.23;3.38;;;24.10;96.90;;;;;;5052653;28;20037;-86
2022/05/14 10:11:24;;;;;;;16.38;3.50;;;23.80;96.50;;;;;;5036496;28;20029;-88
2022/05/14 10:14:22;;;;;;;14.13;3.75;;;23.50;96.80;;;;;;5052583;28;20045;-87
2022/05/14 10:17:13;;;;;;;11.10;3.28;;;23.50;97.20;;;;;;5006509;28;20389;-87
2022/05/14 10:19:44;;;;;;;12.00;3.30;;;23.30;96.10;;;;;;5051341;28;20072;-86
2022/05/14 10:26:44;;;;;;;15.52;3.10;;;23.20;96.70;;;;;;5036305;28;20526;-86
2022/05/14 10:28:19;;;;;;;14.68;3.35;;;24.30;96.60;;;;;;5051986;28;20048;-85
2022/05/14 10:31:04;;;;;;;12.68;3.42;;;24.70;96.40;;;;;;5034312;28;20029;-85
2022/05/14 10:33:32;;;;;;;10.90;2.83;;;24.90;94.90;;;;;;5050856;28;20041;-87
2022/05/14 10:36:23;;;;;;;15.70;3.63;;;24.50;95.30;;;;;;5016306;28;20066;-86
2022/05/14 10:38:57;;;;;;;12.10;3.03;;;24.30;95.50;;;;;;5034756;28;20516;-87
2022/05/14 10:41:32;;;;;;;13.45;3.13;;;23.50;96.10;;;;;;5034053;28;20056;-86
2022/05/14 10:44:06;;;;;;;12.32;3.40;;;23.50;96.90;;;;;;5035321;28;20037;-85
2022/05/14 10:46:34;;;;;;;10.20;2.92;;;23.80;96.50;;;;;;5052561;28;20095;-85
2022/05/14 10:49:34;;;;;;;12.48;3.28;;;24.20;95.50;;;;;;5052060;28;20408;-85
2022/05/14 10:52:00;;;;;;;10.82;2.72;;;24.50;95.60;;;;;;5034905;28;20040;-85
2022/05/14 10:54:26;;;;;;;12.20;3.08;;;24.80;94.40;;;;;;5018861;28;20045;-86
2022/05/14 10:56:55;;;;;;;12.45;3.33;;;25.20;95.00;;;;;;5035238;28;20058;-82
2022/05/14 10:59:35;;;;;;;11.88;3.10;;;25.60;94.90;;;;;;5035656;28;20044;-81
2022/05/14 11:02:25;;;;;;;14.18;3.20;;;25.30;93.70;;;;;;5035503;28;20401;-81
2022/05/14 11:04:52;;;;;;;10.73;2.90;;;25.60;94.30;;;;;;5033505;28;20048;-82
2022/05/14 11:07:42;;;;;;;20.65;3.40;;;25.70;93.80;;;;;;5036506;28;20040;-80
2022/05/14 11:10:34;;;;;;;12.68;3.13;;;25.50;93.70;;;;;;5051525;28;20063;-80
2022/05/14 11:13:29;;;;;;;11.88;3.08;;;25.50;92.80;;;;;;5034982;28;20052;-81
2022/05/14 11:16:10;;;;;;;11.90;3.13;;;25.40;93.50;;;;;;5030246;28;20139;-82
2022/05/14 11:18:45;;;;;;;14.20;3.22;;;25.20;93.30;;;;;;5035302;28;20076;-82
2022/05/14 11:21:11;;;;;;;12.68;3.28;;;25.00;94.80;;;;;;5051401;28;20041;-84
2022/05/14 11:23:59;;;;;;;14.90;3.33;;;24.90;93.40;;;;;;5034749;28;20045;-82
2022/05/14 11:26:26;;;;;;;14.18;3.47;;;24.70;93.40;;;;;;5049943;28;20062;-81
2022/05/14 11:29:11;;;;;;;14.52;3.60;;;24.50;94.20;;;;;;5051734;28;20485;-81
2022/05/14 11:31:42;;;;;;;15.02;3.58;;;24.30;94.20;;;;;;5051454;28;20033;-81
2022/05/14 11:34:18;;;;;;;15.80;3.75;;;24.20;94.60;;;;;;5051194;28;20127;-81
2022/05/14 11:36:50;;;;;;;9.65;2.75;;;24.00;93.50;;;;;;5050973;28;20045;-83
2022/05/14 11:39:25;;;;;;;12.52;2.97;;;24.30;93.60;;;;;;5032443;28;20048;-81
2022/05/14 11:42:05;;;;;;;13.90;3.55;;;24.80;93.40;;;;;;5051433;28;20037;-81
2022/05/14 11:44:40;;;;;;;15.10;3.60;;;25.10;94.10;;;;;;5065405;28;20122;-76
2022/05/14 11:47:28;;;;;;;12.20;3.10;;;25.50;92.50;;;;;;5050554;28;20036;-78
2022/05/14 11:49:57;;;;;;;13.65;3.47;;;25.80;93.00;;;;;;5051048;28;20068;-78
2022/05/14 11:52:28;;;;;;;13.20;3.70;;;26.50;92.60;;;;;;5034366;28;20041;-78
2022/05/14 11:55:10;;;;;;;12.73;3.53;;;26.80;91.70;;;;;;5051170;28;20464;-78
2022/05/14 11:57:44;;;;;;;13.07;2.65;;;26.60;90.30;;;;;;5050712;28;20090;-77
2022/05/14 12:00:22;;;;;;;12.95;3.10;;;26.40;91.40;;;;;;5050194;28;20106;-77
2022/05/14 12:03:08;;;;;;;10.82;3.22;;;26.20;91.30;;;;;;5050649;28;20068;-77
2022/05/14 12:05:45;;;;;;;14.13;3.50;;;25.90;91.20;;;;;;5050511;28;20049;-76
2022/05/14 12:08:23;;;;;;;13.77;3.70;;;25.80;90.70;;;;;;5049888;28;20045;-76
2022/05/14 12:10:52;;;;;;;12.25;3.17;;;25.60;92.00;;;;;;5050403;28;20075;-78
2022/05/14 12:13:21;;;;;;;14.25;3.30;;;25.90;92.10;;;;;;5050063;28;20048;-78
2022/05/14 12:15:51;;;;;;;12.07;3.08;;;25.40;91.80;;;;;;5050499;28;20061;-77
2022/05/14 12:18:17;;;;;;;15.45;3.42;;;25.40;92.50;;;;;;5049596;28;20041;-77
2022/05/14 12:20:51;;;;;;;14.45;3.50;;;25.00;91.70;;;;;;5050046;28;20044;-77
2022/05/14 12:23:17;;;;;;;14.52;3.50;;;24.90;91.80;;;;;;5034499;28;20061;-77
2022/05/14 12:25:46;;;;;;;16.65;3.50;;;24.70;92.00;;;;;;5033761;28;20480;-76
2022/05/14 12:28:24;;;;;;;11.55;3.10;;;24.50;92.00;;;;;;5049399;28;20091;-77
2022/05/14 12:34:00;;;;;;;13.32;3.30;;;24.60;91.90;;;;;;5050157;28;20151;-78
2022/05/14 12:36:33;;;;;;;15.13;3.85;;;24.40;92.20;;;;;;5049479;28;20052;-78
2022/05/14 12:39:02;;;;;;;13.60;3.13;;;24.20;92.00;;;;;;5032710;28;20033;-79
2022/05/14 12:41:32;;;;;;;17.30;3.17;;;24.00;92.30;;;;;;5049836;28;20047;-79
2022/05/14 12:44:28;;;;;;;14.35;3.30;;;24.30;93.30;;;;;;5050338;28;20574;-81
2022/05/14 12:46:58;;;;;;;14.35;3.25;;;24.30;92.20;;;;;;5048722;28;20068;-82
2022/05/14 12:49:30;;;;;;;13.55;3.00;;;24.40;91.70;;;;;;5049762;28;20194;-82
2022/05/14 12:52:09;;;;;;;10.25;3.33;;;24.20;91.40;;;;;;5032129;28;20413;-82
2022/05/14 12:54:40;;;;;;;12.85;3.10;;;24.10;91.60;;;;;;5033606;28;20040;-81
2022/05/14 12:57:10;;;;;;;15.02;3.95;;;24.50;91.80;;;;;;5049577;28;20044;-81
2022/05/14 12:59:37;;;;;;;13.38;3.40;;;24.70;92.20;;;;;;5050051;28;20036;-81
2022/05/14 13:02:10;;;;;;;13.90;3.88;;;24.10;91.60;;;;;;5049827;28;20049;-82
2022/05/14 13:04:54;;;;;;;11.40;3.13;;;24.00;91.60;;;;;;5050139;28;20032;-82
2022/05/14 13:07:21;;;;;;;12.52;3.40;;;24.00;91.70;;;;;;5049517;28;20117;-82
2022/05/14 13:09:48;;;;;;;13.13;3.55;;;24.10;91.20;;;;;;5033558;28;20060;-79
2022/05/14 13:12:20;;;;;;;12.02;2.97;;;23.80;91.90;;;;;;5049836;28;20043;-80
2022/05/14 13:14:59;;;;;;;12.80;3.15;;;23.50;91.90;;;;;;5050083;28;20045;-81
2022/05/14 13:17:35;;;;;;;13.45;3.15;;;23.50;92.40;;;;;;5046445;28;20136;-80